sensor_id;sensor_type;location;lat;lon;timestamp;P1;durP1;ratioP1;P2;durP2;ratioP2
67508;SDS011;54354;44.724;11.284;2023-11-21T00:01:54;67.38;;;48.65;;
67508;SDS011;54354;44.724;11.284;2023-11-21T00:04:19;65.32;;;47.00;;
67508;SDS011;54354;44.724;11.284;2023-11-21T00:06:45;61.55;;;47.15;;
67508;SDS011;54354;44.724;11.284;2023-11-21T00:09:12;63.17;;;47.10;;
67508;SDS011;54354;44.724;11.284;2023-11-21T00:11:40;65.65;;;47.80;;
67508;SDS011;54354;44.724;11.284;2023-11-21T00:14:06;60.78;;;47.35;;
67508;SDS011;54354;44.724;11.284;2023-11-21T00:16:33;67.70;;;47.58;;
67508;SDS011;54354;44.724;11.284;2023-11-21T00:18:59;60.78;;;47.75;;
67508;SDS011;54354;44.724;11.284;2023-11-21T00:21:24;59.33;;;47.22;;
67508;SDS011;54354;44.724;11.284;2023-11-21T00:23:50;63.95;;;47.25;;
67508;SDS011;54354;44.724;11.284;2023-11-21T00:26:16;60.30;;;46.75;;
67508;SDS011;54354;44.724;11.284;2023-11-21T00:28:46;61.38;;;46.47;;
67508;SDS011;54354;44.724;11.284;2023-11-21T00:31:12;59.80;;;45.25;;
67508;SDS011;54354;44.724;11.284;2023-11-21T00:33:38;59.25;;;44.88;;
67508;SDS011;54354;44.724;11.284;2023-11-21T00:36:04;62.13;;;46.13;;
67508;SDS011;54354;44.724;11.284;2023-11-21T00:38:31;59.47;;;46.25;;
67508;SDS011;54354;44.724;11.284;2023-11-21T00:40:57;59.42;;;46.45;;
67508;SDS011;54354;44.724;11.284;2023-11-21T00:43:22;59.88;;;46.38;;
67508;SDS011;54354;44.724;11.284;2023-11-21T00:45:49;63.83;;;47.60;;
67508;SDS011;54354;44.724;11.284;2023-11-21T00:48:14;63.78;;;47.35;;
67508;SDS011;54354;44.724;11.284;2023-11-21T00:50:40;61.03;;;47.55;;
67508;SDS011;54354;44.724;11.284;2023-11-21T00:53:05;62.88;;;47.08;;
67508;SDS011;54354;44.724;11.284;2023-11-21T00:55:34;63.58;;;47.80;;
67508;SDS011;54354;44.724;11.284;2023-11-21T00:58:00;62.83;;;46.85;;
67508;SDS011;54354;44.724;11.284;2023-11-21T01:00:29;62.97;;;47.03;;
67508;SDS011;54354;44.724;11.284;2023-11-21T01:02:55;62.58;;;46.10;;
67508;SDS011;54354;44.724;11.284;2023-11-21T01:05:21;64.18;;;47.83;;
67508;SDS011;54354;44.724;11.284;2023-11-21T01:07:46;64.30;;;48.67;;
67508;SDS011;54354;44.724;11.284;2023-11-21T01:10:12;62.67;;;48.60;;
67508;SDS011;54354;44.724;11.284;2023-11-21T01:12:38;64.20;;;48.55;;
67508;SDS011;54354;44.724;11.284;2023-11-21T01:15:07;68.43;;;49.75;;
67508;SDS011;54354;44.724;11.284;2023-11-21T01:17:32;60.63;;;48.90;;
67508;SDS011;54354;44.724;11.284;2023-11-21T01:19:59;64.75;;;47.92;;
67508;SDS011;54354;44.724;11.284;2023-11-21T01:22:25;66.82;;;50.67;;
67508;SDS011;54354;44.724;11.284;2023-11-21T01:24:53;77.90;;;56.42;;
67508;SDS011;54354;44.724;11.284;2023-11-21T01:27:18;75.18;;;54.33;;
67508;SDS011;54354;44.724;11.284;2023-11-21T01:29:44;73.00;;;52.92;;
67508;SDS011;54354;44.724;11.284;2023-11-21T01:32:10;69.78;;;52.47;;
67508;SDS011;54354;44.724;11.284;2023-11-21T01:34:36;75.00;;;53.25;;
67508;SDS011;54354;44.724;11.284;2023-11-21T01:37:01;75.05;;;53.25;;
67508;SDS011;54354;44.724;11.284;2023-11-21T01:39:30;70.57;;;50.63;;
67508;SDS011;54354;44.724;11.284;2023-11-21T01:41:57;72.07;;;50.40;;
67508;SDS011;54354;44.724;11.284;2023-11-21T01:44:26;67.15;;;50.65;;
67508;SDS011;54354;44.724;11.284;2023-11-21T01:46:51;68.30;;;51.38;;
67508;SDS011;54354;44.724;11.284;2023-11-21T01:49:17;66.75;;;49.55;;
67508;SDS011;54354;44.724;11.284;2023-11-21T01:51:47;62.67;;;49.10;;
67508;SDS011;54354;44.724;11.284;2023-11-21T01:54:14;64.43;;;47.90;;
67508;SDS011;54354;44.724;11.284;2023-11-21T01:56:42;68.55;;;48.97;;
67508;SDS011;54354;44.724;11.284;2023-11-21T01:59:10;65.63;;;47.13;;
67508;SDS011;54354;44.724;11.284;2023-11-21T02:01:36;69.30;;;48.03;;
67508;SDS011;54354;44.724;11.284;2023-11-21T02:04:02;63.08;;;48.80;;
67508;SDS011;54354;44.724;11.284;2023-11-21T02:06:28;64.07;;;47.90;;
67508;SDS011;54354;44.724;11.284;2023-11-21T02:08:56;61.80;;;48.13;;
67508;SDS011;54354;44.724;11.284;2023-11-21T02:11:22;64.28;;;48.15;;
67508;SDS011;54354;44.724;11.284;2023-11-21T02:13:47;66.68;;;47.22;;
67508;SDS011;54354;44.724;11.284;2023-11-21T02:16:15;61.45;;;48.20;;
67508;SDS011;54354;44.724;11.284;2023-11-21T02:18:40;66.03;;;47.40;;
67508;SDS011;54354;44.724;11.284;2023-11-21T02:21:07;62.75;;;48.67;;
67508;SDS011;54354;44.724;11.284;2023-11-21T02:23:33;70.35;;;52.17;;
67508;SDS011;54354;44.724;11.284;2023-11-21T02:25:58;75.25;;;51.47;;
67508;SDS011;54354;44.724;11.284;2023-11-21T02:28:24;75.00;;;52.15;;
67508;SDS011;54354;44.724;11.284;2023-11-21T02:30:52;69.63;;;49.47;;
67508;SDS011;54354;44.724;11.284;2023-11-21T02:33:23;68.18;;;49.20;;
67508;SDS011;54354;44.724;11.284;2023-11-21T02:35:48;70.15;;;49.33;;
67508;SDS011;54354;44.724;11.284;2023-11-21T02:38:14;66.05;;;48.08;;
67508;SDS011;54354;44.724;11.284;2023-11-21T02:40:41;66.63;;;49.50;;
67508;SDS011;54354;44.724;11.284;2023-11-21T02:43:08;63.92;;;48.65;;
67508;SDS011;54354;44.724;11.284;2023-11-21T02:45:34;64.22;;;48.42;;
67508;SDS011;54354;44.724;11.284;2023-11-21T02:47:59;62.95;;;48.35;;
67508;SDS011;54354;44.724;11.284;2023-11-21T02:50:25;68.35;;;48.20;;
67508;SDS011;54354;44.724;11.284;2023-11-21T02:52:50;59.72;;;46.90;;
67508;SDS011;54354;44.724;11.284;2023-11-21T02:55:16;66.43;;;48.80;;
67508;SDS011;54354;44.724;11.284;2023-11-21T02:57:42;63.47;;;49.17;;
67508;SDS011;54354;44.724;11.284;2023-11-21T03:00:07;66.93;;;48.10;;
67508;SDS011;54354;44.724;11.284;2023-11-21T03:02:35;63.47;;;48.33;;
67508;SDS011;54354;44.724;11.284;2023-11-21T03:05:04;65.55;;;47.65;;
67508;SDS011;54354;44.724;11.284;2023-11-21T03:07:30;62.00;;;47.58;;
67508;SDS011;54354;44.724;11.284;2023-11-21T03:09:57;64.07;;;48.55;;
67508;SDS011;54354;44.724;11.284;2023-11-21T03:12:22;62.55;;;48.65;;
67508;SDS011;54354;44.724;11.284;2023-11-21T03:14:48;67.35;;;49.53;;
67508;SDS011;54354;44.724;11.284;2023-11-21T03:17:14;66.63;;;49.05;;
67508;SDS011;54354;44.724;11.284;2023-11-21T03:19:41;61.33;;;47.08;;
67508;SDS011;54354;44.724;11.284;2023-11-21T03:22:07;58.80;;;46.72;;
67508;SDS011;54354;44.724;11.284;2023-11-21T03:24:34;73.38;;;49.53;;
67508;SDS011;54354;44.724;11.284;2023-11-21T03:27:00;62.28;;;47.70;;
67508;SDS011;54354;44.724;11.284;2023-11-21T03:29:25;63.90;;;46.38;;
67508;SDS011;54354;44.724;11.284;2023-11-21T03:31:51;59.55;;;46.45;;
67508;SDS011;54354;44.724;11.284;2023-11-21T03:34:22;62.25;;;46.78;;
67508;SDS011;54354;44.724;11.284;2023-11-21T03:36:50;72.88;;;50.72;;
67508;SDS011;54354;44.724;11.284;2023-11-21T03:39:17;70.18;;;50.67;;
67508;SDS011;54354;44.724;11.284;2023-11-21T03:41:43;67.78;;;49.35;;
67508;SDS011;54354;44.724;11.284;2023-11-21T03:44:08;67.75;;;47.72;;
67508;SDS011;54354;44.724;11.284;2023-11-21T03:46:34;63.33;;;49.15;;
67508;SDS011;54354;44.724;11.284;2023-11-21T03:48:59;64.97;;;48.60;;
67508;SDS011;54354;44.724;11.284;2023-11-21T03:51:25;63.90;;;49.28;;
67508;SDS011;54354;44.724;11.284;2023-11-21T03:53:50;63.60;;;48.40;;
67508;SDS011;54354;44.724;11.284;2023-11-21T03:56:16;68.50;;;49.10;;
67508;SDS011;54354;44.724;11.284;2023-11-21T03:58:41;69.13;;;50.95;;
67508;SDS011;54354;44.724;11.284;2023-11-21T04:01:07;71.00;;;50.15;;
67508;SDS011;54354;44.724;11.284;2023-11-21T04:03:32;70.55;;;49.63;;
67508;SDS011;54354;44.724;11.284;2023-11-21T04:05:58;69.00;;;50.55;;
67508;SDS011;54354;44.724;11.284;2023-11-21T04:08:23;65.38;;;48.33;;
67508;SDS011;54354;44.724;11.284;2023-11-21T04:10:50;65.85;;;48.08;;
67508;SDS011;54354;44.724;11.284;2023-11-21T04:13:16;61.35;;;46.45;;
67508;SDS011;54354;44.724;11.284;2023-11-21T04:15:41;62.63;;;46.95;;
67508;SDS011;54354;44.724;11.284;2023-11-21T04:18:07;61.05;;;46.78;;
67508;SDS011;54354;44.724;11.284;2023-11-21T04:20:32;66.25;;;47.28;;
67508;SDS011;54354;44.724;11.284;2023-11-21T04:22:58;63.83;;;47.25;;
67508;SDS011;54354;44.724;11.284;2023-11-21T04:25:23;66.80;;;47.95;;
67508;SDS011;54354;44.724;11.284;2023-11-21T04:27:49;64.65;;;45.97;;
67508;SDS011;54354;44.724;11.284;2023-11-21T04:30:14;62.33;;;47.25;;
67508;SDS011;54354;44.724;11.284;2023-11-21T04:32:40;70.10;;;51.03;;
67508;SDS011;54354;44.724;11.284;2023-11-21T04:35:07;76.65;;;50.97;;
67508;SDS011;54354;44.724;11.284;2023-11-21T04:37:33;83.55;;;52.50;;
67508;SDS011;54354;44.724;11.284;2023-11-21T04:39:59;75.30;;;49.90;;
67508;SDS011;54354;44.724;11.284;2023-11-21T04:42:25;73.47;;;50.35;;
67508;SDS011;54354;44.724;11.284;2023-11-21T04:44:50;68.90;;;48.28;;
67508;SDS011;54354;44.724;11.284;2023-11-21T04:47:18;64.78;;;47.08;;
67508;SDS011;54354;44.724;11.284;2023-11-21T04:49:45;60.25;;;47.20;;
67508;SDS011;54354;44.724;11.284;2023-11-21T04:52:14;64.88;;;48.20;;
67508;SDS011;54354;44.724;11.284;2023-11-21T04:54:40;60.15;;;46.70;;
67508;SDS011;54354;44.724;11.284;2023-11-21T04:57:05;60.63;;;48.35;;
67508;SDS011;54354;44.724;11.284;2023-11-21T04:59:32;61.08;;;47.33;;
67508;SDS011;54354;44.724;11.284;2023-11-21T05:01:59;64.53;;;47.88;;
67508;SDS011;54354;44.724;11.284;2023-11-21T05:04:25;60.90;;;47.42;;
67508;SDS011;54354;44.724;11.284;2023-11-21T05:06:51;58.80;;;46.95;;
67508;SDS011;54354;44.724;11.284;2023-11-21T05:09:16;62.35;;;48.10;;
67508;SDS011;54354;44.724;11.284;2023-11-21T05:11:43;58.20;;;45.75;;
67508;SDS011;54354;44.724;11.284;2023-11-21T05:14:08;61.25;;;47.20;;
67508;SDS011;54354;44.724;11.284;2023-11-21T05:16:34;63.08;;;45.65;;
67508;SDS011;54354;44.724;11.284;2023-11-21T05:19:00;62.40;;;47.05;;
67508;SDS011;54354;44.724;11.284;2023-11-21T05:21:29;63.00;;;46.67;;
67508;SDS011;54354;44.724;11.284;2023-11-21T05:23:56;63.70;;;47.53;;
67508;SDS011;54354;44.724;11.284;2023-11-21T05:26:22;64.35;;;47.28;;
67508;SDS011;54354;44.724;11.284;2023-11-21T05:28:47;62.55;;;47.13;;
67508;SDS011;54354;44.724;11.284;2023-11-21T05:31:13;62.47;;;47.30;;
67508;SDS011;54354;44.724;11.284;2023-11-21T05:33:38;64.35;;;47.30;;
67508;SDS011;54354;44.724;11.284;2023-11-21T05:36:04;65.03;;;47.63;;
67508;SDS011;54354;44.724;11.284;2023-11-21T05:38:33;63.20;;;46.83;;
67508;SDS011;54354;44.724;11.284;2023-11-21T05:40:59;67.60;;;46.30;;
67508;SDS011;54354;44.724;11.284;2023-11-21T05:43:24;59.40;;;45.60;;
67508;SDS011;54354;44.724;11.284;2023-11-21T05:45:50;61.50;;;47.38;;
67508;SDS011;54354;44.724;11.284;2023-11-21T05:48:15;62.78;;;48.10;;
67508;SDS011;54354;44.724;11.284;2023-11-21T05:50:41;62.10;;;46.63;;
67508;SDS011;54354;44.724;11.284;2023-11-21T05:53:06;65.55;;;47.22;;
67508;SDS011;54354;44.724;11.284;2023-11-21T05:55:32;65.40;;;49.13;;
67508;SDS011;54354;44.724;11.284;2023-11-21T05:57:58;64.13;;;48.42;;
67508;SDS011;54354;44.724;11.284;2023-11-21T06:00:23;65.53;;;48.03;;
67508;SDS011;54354;44.724;11.284;2023-11-21T06:02:51;68.07;;;48.92;;
67508;SDS011;54354;44.724;11.284;2023-11-21T06:05:19;70.43;;;50.47;;
67508;SDS011;54354;44.724;11.284;2023-11-21T06:07:45;66.78;;;48.53;;
67508;SDS011;54354;44.724;11.284;2023-11-21T06:10:11;74.43;;;52.22;;
67508;SDS011;54354;44.724;11.284;2023-11-21T06:12:43;65.43;;;49.30;;
67508;SDS011;54354;44.724;11.284;2023-11-21T06:15:09;70.10;;;50.42;;
67508;SDS011;54354;44.724;11.284;2023-11-21T06:17:38;65.70;;;50.65;;
67508;SDS011;54354;44.724;11.284;2023-11-21T06:20:05;69.70;;;50.92;;
67508;SDS011;54354;44.724;11.284;2023-11-21T06:22:38;74.18;;;52.00;;
67508;SDS011;54354;44.724;11.284;2023-11-21T06:25:04;70.53;;;52.63;;
67508;SDS011;54354;44.724;11.284;2023-11-21T06:27:38;72.95;;;51.78;;
67508;SDS011;54354;44.724;11.284;2023-11-21T06:30:05;70.20;;;52.38;;
67508;SDS011;54354;44.724;11.284;2023-11-21T06:32:31;74.90;;;53.53;;
67508;SDS011;54354;44.724;11.284;2023-11-21T06:34:57;73.15;;;52.30;;
67508;SDS011;54354;44.724;11.284;2023-11-21T06:37:28;75.35;;;54.45;;
67508;SDS011;54354;44.724;11.284;2023-11-21T06:39:54;76.40;;;55.37;;
67508;SDS011;54354;44.724;11.284;2023-11-21T06:42:20;78.43;;;54.78;;
67508;SDS011;54354;44.724;11.284;2023-11-21T06:44:46;78.32;;;53.60;;
67508;SDS011;54354;44.724;11.284;2023-11-21T06:47:12;71.65;;;53.85;;
67508;SDS011;54354;44.724;11.284;2023-11-21T06:49:38;66.07;;;51.45;;
67508;SDS011;54354;44.724;11.284;2023-11-21T06:52:04;71.45;;;52.20;;
67508;SDS011;54354;44.724;11.284;2023-11-21T06:54:30;71.60;;;53.95;;
67508;SDS011;54354;44.724;11.284;2023-11-21T06:56:56;71.55;;;53.85;;
67508;SDS011;54354;44.724;11.284;2023-11-21T06:59:23;69.95;;;52.42;;
67508;SDS011;54354;44.724;11.284;2023-11-21T07:01:49;69.13;;;51.10;;
67508;SDS011;54354;44.724;11.284;2023-11-21T07:04:15;72.25;;;53.78;;
67508;SDS011;54354;44.724;11.284;2023-11-21T07:06:40;71.25;;;53.85;;
67508;SDS011;54354;44.724;11.284;2023-11-21T07:09:06;71.13;;;53.40;;
67508;SDS011;54354;44.724;11.284;2023-11-21T07:11:33;70.10;;;52.85;;
67508;SDS011;54354;44.724;11.284;2023-11-21T07:13:59;71.22;;;52.40;;
67508;SDS011;54354;44.724;11.284;2023-11-21T07:16:27;75.78;;;51.55;;
67508;SDS011;54354;44.724;11.284;2023-11-21T07:18:55;71.85;;;52.13;;
67508;SDS011;54354;44.724;11.284;2023-11-21T07:21:21;71.20;;;52.58;;
67508;SDS011;54354;44.724;11.284;2023-11-21T07:23:46;68.03;;;52.55;;
67508;SDS011;54354;44.724;11.284;2023-11-21T07:26:12;71.38;;;53.08;;
67508;SDS011;54354;44.724;11.284;2023-11-21T07:28:37;76.88;;;55.92;;
67508;SDS011;54354;44.724;11.284;2023-11-21T07:31:03;78.65;;;53.97;;
67508;SDS011;54354;44.724;11.284;2023-11-21T07:33:28;72.57;;;55.00;;
67508;SDS011;54354;44.724;11.284;2023-11-21T07:35:54;77.53;;;55.50;;
67508;SDS011;54354;44.724;11.284;2023-11-21T07:38:19;77.25;;;54.83;;
67508;SDS011;54354;44.724;11.284;2023-11-21T07:40:45;74.35;;;54.38;;
67508;SDS011;54354;44.724;11.284;2023-11-21T07:43:10;73.05;;;54.25;;
67508;SDS011;54354;44.724;11.284;2023-11-21T07:45:36;83.20;;;56.80;;
67508;SDS011;54354;44.724;11.284;2023-11-21T07:48:02;78.90;;;55.30;;
67508;SDS011;54354;44.724;11.284;2023-11-21T07:50:28;75.82;;;55.25;;
67508;SDS011;54354;44.724;11.284;2023-11-21T07:52:54;75.47;;;53.63;;
67508;SDS011;54354;44.724;11.284;2023-11-21T07:55:20;69.57;;;53.85;;
67508;SDS011;54354;44.724;11.284;2023-11-21T07:57:45;77.50;;;56.00;;
67508;SDS011;54354;44.724;11.284;2023-11-21T08:00:11;77.50;;;55.10;;
67508;SDS011;54354;44.724;11.284;2023-11-21T08:02:38;75.57;;;55.63;;
67508;SDS011;54354;44.724;11.284;2023-11-21T08:05:07;76.43;;;54.25;;
67508;SDS011;54354;44.724;11.284;2023-11-21T08:07:33;74.57;;;53.40;;
67508;SDS011;54354;44.724;11.284;2023-11-21T08:09:58;75.57;;;53.83;;
67508;SDS011;54354;44.724;11.284;2023-11-21T08:12:24;72.72;;;53.88;;
67508;SDS011;54354;44.724;11.284;2023-11-21T08:14:51;71.35;;;52.00;;
67508;SDS011;54354;44.724;11.284;2023-11-21T08:17:16;72.40;;;54.60;;
67508;SDS011;54354;44.724;11.284;2023-11-21T08:19:42;73.40;;;54.42;;
67508;SDS011;54354;44.724;11.284;2023-11-21T08:22:07;82.93;;;57.15;;
67508;SDS011;54354;44.724;11.284;2023-11-21T08:24:33;71.55;;;54.50;;
67508;SDS011;54354;44.724;11.284;2023-11-21T08:26:59;77.97;;;56.08;;
67508;SDS011;54354;44.724;11.284;2023-11-21T08:29:24;76.25;;;57.03;;
67508;SDS011;54354;44.724;11.284;2023-11-21T08:31:50;73.95;;;56.90;;
67508;SDS011;54354;44.724;11.284;2023-11-21T08:34:15;78.78;;;56.67;;
67508;SDS011;54354;44.724;11.284;2023-11-21T08:36:44;84.68;;;59.47;;
67508;SDS011;54354;44.724;11.284;2023-11-21T08:39:10;80.32;;;57.72;;
67508;SDS011;54354;44.724;11.284;2023-11-21T08:41:36;104.35;;;78.15;;
67508;SDS011;54354;44.724;11.284;2023-11-21T08:44:02;86.38;;;65.60;;
67508;SDS011;54354;44.724;11.284;2023-11-21T08:46:31;78.55;;;58.42;;
67508;SDS011;54354;44.724;11.284;2023-11-21T08:48:57;83.85;;;59.90;;
67508;SDS011;54354;44.724;11.284;2023-11-21T08:51:23;80.65;;;57.83;;
67508;SDS011;54354;44.724;11.284;2023-11-21T08:53:50;81.53;;;59.95;;
67508;SDS011;54354;44.724;11.284;2023-11-21T08:56:16;81.40;;;58.03;;
67508;SDS011;54354;44.724;11.284;2023-11-21T08:58:43;78.57;;;57.72;;
67508;SDS011;54354;44.724;11.284;2023-11-21T09:01:09;88.22;;;66.18;;
67508;SDS011;54354;44.724;11.284;2023-11-21T09:03:34;88.80;;;66.28;;
67508;SDS011;54354;44.724;11.284;2023-11-21T09:06:00;80.72;;;60.97;;
67508;SDS011;54354;44.724;11.284;2023-11-21T09:08:26;82.78;;;59.88;;
67508;SDS011;54354;44.724;11.284;2023-11-21T09:10:54;82.15;;;57.28;;
67508;SDS011;54354;44.724;11.284;2023-11-21T09:13:20;80.40;;;59.97;;
67508;SDS011;54354;44.724;11.284;2023-11-21T09:15:45;80.78;;;59.67;;
67508;SDS011;54354;44.724;11.284;2023-11-21T09:18:13;76.85;;;59.03;;
67508;SDS011;54354;44.724;11.284;2023-11-21T09:20:38;83.00;;;59.78;;
67508;SDS011;54354;44.724;11.284;2023-11-21T09:23:04;79.18;;;59.53;;
67508;SDS011;54354;44.724;11.284;2023-11-21T09:25:29;77.68;;;58.83;;
67508;SDS011;54354;44.724;11.284;2023-11-21T09:27:55;81.05;;;58.72;;
67508;SDS011;54354;44.724;11.284;2023-11-21T09:30:22;82.18;;;59.08;;
67508;SDS011;54354;44.724;11.284;2023-11-21T09:32:50;83.90;;;61.25;;
67508;SDS011;54354;44.724;11.284;2023-11-21T09:35:16;84.10;;;60.28;;
67508;SDS011;54354;44.724;11.284;2023-11-21T09:37:45;86.30;;;62.25;;
67508;SDS011;54354;44.724;11.284;2023-11-21T09:40:11;83.93;;;62.25;;
67508;SDS011;54354;44.724;11.284;2023-11-21T09:45:31;91.50;;;64.70;;
67508;SDS011;54354;44.724;11.284;2023-11-21T09:47:59;89.50;;;62.97;;
67508;SDS011;54354;44.724;11.284;2023-11-21T09:50:26;93.25;;;65.47;;
67508;SDS011;54354;44.724;11.284;2023-11-21T09:55:21;91.53;;;65.43;;
67508;SDS011;54354;44.724;11.284;2023-11-21T09:57:49;102.90;;;69.28;;
67508;SDS011;54354;44.724;11.284;2023-11-21T10:00:15;92.88;;;68.65;;
67508;SDS011;54354;44.724;11.284;2023-11-21T10:02:43;97.03;;;70.25;;
67508;SDS011;54354;44.724;11.284;2023-11-21T10:05:09;101.15;;;71.03;;
67508;SDS011;54354;44.724;11.284;2023-11-21T10:07:36;99.90;;;73.57;;
67508;SDS011;54354;44.724;11.284;2023-11-21T10:10:05;104.32;;;71.30;;
67508;SDS011;54354;44.724;11.284;2023-11-21T10:12:33;104.28;;;72.13;;
67508;SDS011;54354;44.724;11.284;2023-11-21T10:15:00;104.38;;;71.78;;
67508;SDS011;54354;44.724;11.284;2023-11-21T10:17:31;101.57;;;70.90;;
67508;SDS011;54354;44.724;11.284;2023-11-21T10:20:04;101.03;;;69.07;;
67508;SDS011;54354;44.724;11.284;2023-11-21T10:22:37;97.32;;;69.20;;
67508;SDS011;54354;44.724;11.284;2023-11-21T10:25:06;109.50;;;72.53;;
67508;SDS011;54354;44.724;11.284;2023-11-21T10:27:34;105.40;;;73.47;;
67508;SDS011;54354;44.724;11.284;2023-11-21T10:30:03;102.45;;;73.13;;
67508;SDS011;54354;44.724;11.284;2023-11-21T10:32:29;102.83;;;74.50;;
67508;SDS011;54354;44.724;11.284;2023-11-21T10:34:58;105.65;;;72.57;;
67508;SDS011;54354;44.724;11.284;2023-11-21T10:37:25;100.35;;;69.53;;
67508;SDS011;54354;44.724;11.284;2023-11-21T10:39:59;105.63;;;72.68;;
67508;SDS011;54354;44.724;11.284;2023-11-21T10:42:24;109.35;;;73.82;;
67508;SDS011;54354;44.724;11.284;2023-11-21T10:44:50;107.35;;;74.65;;
67508;SDS011;54354;44.724;11.284;2023-11-21T10:47:17;105.38;;;74.03;;
67508;SDS011;54354;44.724;11.284;2023-11-21T10:49:44;115.80;;;80.50;;
67508;SDS011;54354;44.724;11.284;2023-11-21T10:52:12;128.00;;;89.43;;
67508;SDS011;54354;44.724;11.284;2023-11-21T10:54:42;123.05;;;84.43;;
67508;SDS011;54354;44.724;11.284;2023-11-21T10:57:08;124.30;;;81.35;;
67508;SDS011;54354;44.724;11.284;2023-11-21T10:59:35;120.57;;;80.80;;
67508;SDS011;54354;44.724;11.284;2023-11-21T11:02:02;122.25;;;81.72;;
67508;SDS011;54354;44.724;11.284;2023-11-21T11:04:53;121.72;;;84.13;;
67508;SDS011;54354;44.724;11.284;2023-11-21T11:07:21;120.95;;;84.00;;
67508;SDS011;54354;44.724;11.284;2023-11-21T11:09:52;113.55;;;79.35;;
67508;SDS011;54354;44.724;11.284;2023-11-21T11:12:19;124.22;;;85.82;;
67508;SDS011;54354;44.724;11.284;2023-11-21T11:14:45;129.60;;;89.65;;
67508;SDS011;54354;44.724;11.284;2023-11-21T11:17:10;122.28;;;84.38;;
67508;SDS011;54354;44.724;11.284;2023-11-21T11:19:36;123.15;;;86.82;;
67508;SDS011;54354;44.724;11.284;2023-11-21T11:25:19;131.93;;;94.88;;
67508;SDS011;54354;44.724;11.284;2023-11-21T11:31:00;124.40;;;89.10;;
67508;SDS011;54354;44.724;11.284;2023-11-21T11:33:36;114.45;;;78.72;;
67508;SDS011;54354;44.724;11.284;2023-11-21T11:36:10;114.93;;;80.60;;
67508;SDS011;54354;44.724;11.284;2023-11-21T11:38:45;119.50;;;83.00;;
67508;SDS011;54354;44.724;11.284;2023-11-21T11:41:11;119.50;;;84.85;;
67508;SDS011;54354;44.724;11.284;2023-11-21T11:43:38;118.30;;;82.88;;
67508;SDS011;54354;44.724;11.284;2023-11-21T11:46:09;117.05;;;82.13;;
67508;SDS011;54354;44.724;11.284;2023-11-21T11:48:38;118.78;;;81.72;;
67508;SDS011;54354;44.724;11.284;2023-11-21T11:51:11;114.68;;;82.35;;
67508;SDS011;54354;44.724;11.284;2023-11-21T11:53:45;113.93;;;81.50;;
67508;SDS011;54354;44.724;11.284;2023-11-21T11:56:28;111.55;;;77.50;;
67508;SDS011;54354;44.724;11.284;2023-11-21T11:58:58;107.90;;;76.78;;
67508;SDS011;54354;44.724;11.284;2023-11-21T12:01:27;103.35;;;78.03;;
67508;SDS011;54354;44.724;11.284;2023-11-21T12:06:59;111.45;;;80.68;;
67508;SDS011;54354;44.724;11.284;2023-11-21T12:09:28;116.93;;;80.97;;
67508;SDS011;54354;44.724;11.284;2023-11-21T12:11:55;111.35;;;78.18;;
67508;SDS011;54354;44.724;11.284;2023-11-21T12:14:25;111.60;;;79.18;;
67508;SDS011;54354;44.724;11.284;2023-11-21T12:16:50;112.80;;;78.75;;
67508;SDS011;54354;44.724;11.284;2023-11-21T12:19:17;104.72;;;73.57;;
67508;SDS011;54354;44.724;11.284;2023-11-21T12:21:42;106.85;;;77.82;;
67508;SDS011;54354;44.724;11.284;2023-11-21T12:24:09;100.68;;;74.68;;
67508;SDS011;54354;44.724;11.284;2023-11-21T12:26:35;100.95;;;71.47;;
67508;SDS011;54354;44.724;11.284;2023-11-21T12:29:01;100.97;;;72.40;;
67508;SDS011;54354;44.724;11.284;2023-11-21T12:31:29;94.88;;;69.85;;
67508;SDS011;54354;44.724;11.284;2023-11-21T12:33:56;98.65;;;70.68;;
67508;SDS011;54354;44.724;11.284;2023-11-21T12:36:22;101.78;;;71.82;;
67508;SDS011;54354;44.724;11.284;2023-11-21T12:38:49;100.05;;;69.30;;
67508;SDS011;54354;44.724;11.284;2023-11-21T12:41:15;97.90;;;70.82;;
67508;SDS011;54354;44.724;11.284;2023-11-21T12:43:42;94.60;;;67.65;;
67508;SDS011;54354;44.724;11.284;2023-11-21T12:46:09;93.85;;;68.88;;
67508;SDS011;54354;44.724;11.284;2023-11-21T12:48:42;103.00;;;71.82;;
67508;SDS011;54354;44.724;11.284;2023-11-21T12:51:09;103.18;;;71.93;;
67508;SDS011;54354;44.724;11.284;2023-11-21T12:53:35;99.53;;;69.15;;
67508;SDS011;54354;44.724;11.284;2023-11-21T12:56:07;92.50;;;67.68;;
67508;SDS011;54354;44.724;11.284;2023-11-21T12:58:37;100.22;;;70.32;;
67508;SDS011;54354;44.724;11.284;2023-11-21T13:03:47;97.47;;;69.18;;
67508;SDS011;54354;44.724;11.284;2023-11-21T13:06:14;99.75;;;71.03;;
67508;SDS011;54354;44.724;11.284;2023-11-21T13:08:41;93.47;;;68.03;;
67508;SDS011;54354;44.724;11.284;2023-11-21T13:11:06;94.45;;;69.93;;
67508;SDS011;54354;44.724;11.284;2023-11-21T13:13:32;96.35;;;69.68;;
67508;SDS011;54354;44.724;11.284;2023-11-21T13:16:01;95.05;;;70.40;;
67508;SDS011;54354;44.724;11.284;2023-11-21T13:18:30;95.47;;;70.78;;
67508;SDS011;54354;44.724;11.284;2023-11-21T13:21:01;99.72;;;70.82;;
67508;SDS011;54354;44.724;11.284;2023-11-21T13:23:34;95.75;;;69.78;;
67508;SDS011;54354;44.724;11.284;2023-11-21T13:26:00;94.95;;;70.05;;
67508;SDS011;54354;44.724;11.284;2023-11-21T13:28:29;95.85;;;68.45;;
67508;SDS011;54354;44.724;11.284;2023-11-21T13:30:58;96.85;;;70.05;;
67508;SDS011;54354;44.724;11.284;2023-11-21T13:33:34;98.85;;;71.90;;
67508;SDS011;54354;44.724;11.284;2023-11-21T13:36:03;101.47;;;73.35;;
67508;SDS011;54354;44.724;11.284;2023-11-21T13:38:33;101.30;;;72.05;;
67508;SDS011;54354;44.724;11.284;2023-11-21T13:41:00;98.22;;;70.15;;
67508;SDS011;54354;44.724;11.284;2023-11-21T13:43:26;103.35;;;73.03;;
67508;SDS011;54354;44.724;11.284;2023-11-21T13:45:54;100.53;;;74.45;;
67508;SDS011;54354;44.724;11.284;2023-11-21T13:48:29;99.75;;;74.00;;
67508;SDS011;54354;44.724;11.284;2023-11-21T13:51:05;103.03;;;73.38;;
67508;SDS011;54354;44.724;11.284;2023-11-21T13:53:45;100.23;;;72.27;;
67508;SDS011;54354;44.724;11.284;2023-11-21T13:56:15;104.47;;;75.40;;
67508;SDS011;54354;44.724;11.284;2023-11-21T13:58:50;99.10;;;72.43;;
67508;SDS011;54354;44.724;11.284;2023-11-21T14:01:19;107.93;;;75.07;;
67508;SDS011;54354;44.724;11.284;2023-11-21T14:03:55;99.72;;;70.70;;
67508;SDS011;54354;44.724;11.284;2023-11-21T14:06:39;100.00;;;74.00;;
67508;SDS011;54354;44.724;11.284;2023-11-21T14:09:13;107.50;;;75.95;;
67508;SDS011;54354;44.724;11.284;2023-11-21T14:11:50;104.85;;;74.93;;
67508;SDS011;54354;44.724;11.284;2023-11-21T14:14:19;106.55;;;76.55;;
67508;SDS011;54354;44.724;11.284;2023-11-21T14:16:46;107.93;;;75.60;;
67508;SDS011;54354;44.724;11.284;2023-11-21T14:19:11;103.07;;;73.65;;
67508;SDS011;54354;44.724;11.284;2023-11-21T14:21:43;104.15;;;73.75;;
67508;SDS011;54354;44.724;11.284;2023-11-21T14:26:40;101.63;;;71.85;;